sensor_id;sensor_type;location;lat;lon;timestamp;P1;durP1;ratioP1;P2;durP2;ratioP2
28545;SDS011;15749;49.606;8.738;2023-02-23T00:02:24;8.87;;;7.97;;
28545;SDS011;15749;49.606;8.738;2023-02-23T00:04:53;8.87;;;7.97;;
28545;SDS011;15749;49.606;8.738;2023-02-23T00:07:25;9.87;;;8.80;;
28545;SDS011;15749;49.606;8.738;2023-02-23T00:09:54;9.37;;;8.37;;
28545;SDS011;15749;49.606;8.738;2023-02-23T00:12:23;9.27;;;8.43;;
28545;SDS011;15749;49.606;8.738;2023-02-23T00:14:54;10.33;;;9.23;;
28545;SDS011;15749;49.606;8.738;2023-02-23T00:17:25;10.53;;;8.43;;
28545;SDS011;15749;49.606;8.738;2023-02-23T00:19:57;8.60;;;7.70;;
28545;SDS011;15749;49.606;8.738;2023-02-23T00:22:27;9.30;;;8.30;;
28545;SDS011;15749;49.606;8.738;2023-02-23T00:24:56;9.50;;;8.33;;
28545;SDS011;15749;49.606;8.738;2023-02-23T00:27:28;10.57;;;9.47;;
28545;SDS011;15749;49.606;8.738;2023-02-23T00:29:58;11.20;;;10.10;;
28545;SDS011;15749;49.606;8.738;2023-02-23T00:32:27;11.20;;;9.97;;
28545;SDS011;15749;49.606;8.738;2023-02-23T00:34:57;11.57;;;10.47;;
28545;SDS011;15749;49.606;8.738;2023-02-23T00:37:26;11.70;;;10.20;;
28545;SDS011;15749;49.606;8.738;2023-02-23T00:39:55;10.07;;;9.07;;
28545;SDS011;15749;49.606;8.738;2023-02-23T00:42:27;9.00;;;8.17;;
28545;SDS011;15749;49.606;8.738;2023-02-23T00:45:01;8.50;;;7.43;;
28545;SDS011;15749;49.606;8.738;2023-02-23T00:47:34;9.30;;;8.17;;
28545;SDS011;15749;49.606;8.738;2023-02-23T00:50:04;9.50;;;8.23;;
28545;SDS011;15749;49.606;8.738;2023-02-23T00:52:39;11.53;;;9.60;;
28545;SDS011;15749;49.606;8.738;2023-02-23T00:55:10;11.23;;;10.13;;
28545;SDS011;15749;49.606;8.738;2023-02-23T00:57:41;12.53;;;10.63;;
28545;SDS011;15749;49.606;8.738;2023-02-23T01:00:11;11.57;;;10.17;;
28545;SDS011;15749;49.606;8.738;2023-02-23T01:02:47;12.23;;;10.97;;
28545;SDS011;15749;49.606;8.738;2023-02-23T01:05:16;12.10;;;10.90;;
28545;SDS011;15749;49.606;8.738;2023-02-23T01:07:46;12.03;;;10.73;;
28545;SDS011;15749;49.606;8.738;2023-02-23T01:10:15;13.60;;;12.20;;
28545;SDS011;15749;49.606;8.738;2023-02-23T01:12:48;14.00;;;12.60;;
28545;SDS011;15749;49.606;8.738;2023-02-23T01:15:19;13.53;;;12.13;;
28545;SDS011;15749;49.606;8.738;2023-02-23T01:17:49;13.37;;;12.07;;
28545;SDS011;15749;49.606;8.738;2023-02-23T01:20:18;13.63;;;12.23;;
28545;SDS011;15749;49.606;8.738;2023-02-23T01:22:48;12.93;;;11.73;;
28545;SDS011;15749;49.606;8.738;2023-02-23T01:25:18;12.70;;;11.33;;
28545;SDS011;15749;49.606;8.738;2023-02-23T01:27:47;13.27;;;12.00;;
28545;SDS011;15749;49.606;8.738;2023-02-23T01:30:16;13.57;;;12.17;;
28545;SDS011;15749;49.606;8.738;2023-02-23T01:32:47;13.23;;;11.93;;
28545;SDS011;15749;49.606;8.738;2023-02-23T01:35:20;11.40;;;10.07;;
28545;SDS011;15749;49.606;8.738;2023-02-23T01:37:49;9.50;;;8.53;;
28545;SDS011;15749;49.606;8.738;2023-02-23T01:40:34;8.87;;;7.97;;
28545;SDS011;15749;49.606;8.738;2023-02-23T01:43:10;9.07;;;8.17;;
28545;SDS011;15749;49.606;8.738;2023-02-23T01:45:42;8.07;;;7.33;;
28545;SDS011;15749;49.606;8.738;2023-02-23T01:48:15;9.97;;;8.97;;
28545;SDS011;15749;49.606;8.738;2023-02-23T01:50:50;10.27;;;9.27;;
28545;SDS011;15749;49.606;8.738;2023-02-23T01:53:22;9.47;;;8.57;;
28545;SDS011;15749;49.606;8.738;2023-02-23T01:55:55;8.70;;;7.80;;
28545;SDS011;15749;49.606;8.738;2023-02-23T01:58:28;9.23;;;7.63;;
28545;SDS011;15749;49.606;8.738;2023-02-23T02:00:58;10.57;;;9.30;;
28545;SDS011;15749;49.606;8.738;2023-02-23T02:03:32;10.80;;;9.70;;
28545;SDS011;15749;49.606;8.738;2023-02-23T02:06:04;10.83;;;9.73;;
28545;SDS011;15749;49.606;8.738;2023-02-23T02:08:36;9.83;;;8.93;;
28545;SDS011;15749;49.606;8.738;2023-02-23T02:11:11;8.83;;;7.97;;
28545;SDS011;15749;49.606;8.738;2023-02-23T02:13:52;8.07;;;7.27;;
28545;SDS011;15749;49.606;8.738;2023-02-23T02:16:34;7.80;;;7.07;;
28545;SDS011;15749;49.606;8.738;2023-02-23T02:19:50;8.40;;;7.60;;
28545;SDS011;15749;49.606;8.738;2023-02-23T02:23:05;8.50;;;7.63;;
28545;SDS011;15749;49.606;8.738;2023-02-23T02:26:26;7.87;;;7.07;;
28545;SDS011;15749;49.606;8.738;2023-02-23T02:29:28;7.17;;;6.47;;
28545;SDS011;15749;49.606;8.738;2023-02-23T02:32:33;6.80;;;6.10;;
28545;SDS011;15749;49.606;8.738;2023-02-23T02:35:50;6.90;;;6.30;;
28545;SDS011;15749;49.606;8.738;2023-02-23T02:38:47;7.73;;;7.03;;
28545;SDS011;15749;49.606;8.738;2023-02-23T02:41:27;9.17;;;8.27;;
28545;SDS011;15749;49.606;8.738;2023-02-23T02:44:10;11.73;;;10.20;;
28545;SDS011;15749;49.606;8.738;2023-02-23T02:46:46;12.57;;;10.80;;
28545;SDS011;15749;49.606;8.738;2023-02-23T02:49:24;11.37;;;10.23;;
28545;SDS011;15749;49.606;8.738;2023-02-23T02:51:59;12.00;;;10.40;;
28545;SDS011;15749;49.606;8.738;2023-02-23T02:54:37;9.77;;;8.83;;
28545;SDS011;15749;49.606;8.738;2023-02-23T02:57:08;7.73;;;6.93;;
28545;SDS011;15749;49.606;8.738;2023-02-23T02:59:41;8.17;;;7.37;;
28545;SDS011;15749;49.606;8.738;2023-02-23T03:02:29;7.30;;;6.60;;
28545;SDS011;15749;49.606;8.738;2023-02-23T03:05:18;7.23;;;6.53;;
28545;SDS011;15749;49.606;8.738;2023-02-23T03:08:08;8.73;;;7.83;;
28545;SDS011;15749;49.606;8.738;2023-02-23T03:11:04;9.67;;;8.73;;
28545;SDS011;15749;49.606;8.738;2023-02-23T03:13:58;10.57;;;9.57;;
28545;SDS011;15749;49.606;8.738;2023-02-23T03:17:01;10.37;;;9.33;;
28545;SDS011;15749;49.606;8.738;2023-02-23T03:19:56;11.50;;;10.33;;
28545;SDS011;15749;49.606;8.738;2023-02-23T03:22:52;11.60;;;10.40;;
28545;SDS011;15749;49.606;8.738;2023-02-23T03:25:45;11.43;;;10.27;;
28545;SDS011;15749;49.606;8.738;2023-02-23T03:28:44;10.63;;;9.57;;
28545;SDS011;15749;49.606;8.738;2023-02-23T03:31:41;11.67;;;10.17;;
28545;SDS011;15749;49.606;8.738;2023-02-23T03:34:35;11.40;;;10.30;;
28545;SDS011;15749;49.606;8.738;2023-02-23T03:37:27;8.80;;;8.00;;
28545;SDS011;15749;49.606;8.738;2023-02-23T03:40:22;7.57;;;6.87;;
28545;SDS011;15749;49.606;8.738;2023-02-23T03:43:14;8.37;;;7.57;;
28545;SDS011;15749;49.606;8.738;2023-02-23T03:46:06;9.43;;;8.53;;
28545;SDS011;15749;49.606;8.738;2023-02-23T03:48:55;8.30;;;7.50;;
28545;SDS011;15749;49.606;8.738;2023-02-23T03:51:46;9.07;;;8.27;;
28545;SDS011;15749;49.606;8.738;2023-02-23T03:54:42;10.43;;;9.33;;
28545;SDS011;15749;49.606;8.738;2023-02-23T03:57:33;10.37;;;9.37;;
28545;SDS011;15749;49.606;8.738;2023-02-23T04:00:23;11.63;;;10.43;;
28545;SDS011;15749;49.606;8.738;2023-02-23T04:03:16;10.93;;;9.90;;
28545;SDS011;15749;49.606;8.738;2023-02-23T04:06:06;12.33;;;10.77;;
28545;SDS011;15749;49.606;8.738;2023-02-23T04:08:57;11.93;;;10.77;;
28545;SDS011;15749;49.606;8.738;2023-02-23T04:11:49;11.93;;;10.83;;
28545;SDS011;15749;49.606;8.738;2023-02-23T04:14:42;12.27;;;11.07;;
28545;SDS011;15749;49.606;8.738;2023-02-23T04:17:16;12.03;;;10.93;;
28545;SDS011;15749;49.606;8.738;2023-02-23T04:19:53;11.27;;;10.17;;
28545;SDS011;15749;49.606;8.738;2023-02-23T04:22:26;10.17;;;9.17;;
28545;SDS011;15749;49.606;8.738;2023-02-23T04:24:58;8.73;;;7.93;;
28545;SDS011;15749;49.606;8.738;2023-02-23T04:27:27;8.53;;;7.73;;
28545;SDS011;15749;49.606;8.738;2023-02-23T04:29:56;8.23;;;6.73;;
28545;SDS011;15749;49.606;8.738;2023-02-23T04:32:25;8.30;;;7.17;;
28545;SDS011;15749;49.606;8.738;2023-02-23T04:34:58;8.43;;;7.63;;
28545;SDS011;15749;49.606;8.738;2023-02-23T04:37:27;7.87;;;7.17;;
28545;SDS011;15749;49.606;8.738;2023-02-23T04:39:56;7.60;;;6.90;;
28545;SDS011;15749;49.606;8.738;2023-02-23T04:42:26;8.27;;;7.47;;
28545;SDS011;15749;49.606;8.738;2023-02-23T04:44:56;9.67;;;8.77;;
28545;SDS011;15749;49.606;8.738;2023-02-23T04:47:28;8.60;;;7.80;;
28545;SDS011;15749;49.606;8.738;2023-02-23T04:49:59;9.97;;;8.87;;
28545;SDS011;15749;49.606;8.738;2023-02-23T04:52:28;8.83;;;7.93;;
28545;SDS011;15749;49.606;8.738;2023-02-23T04:54:58;7.70;;;7.00;;
28545;SDS011;15749;49.606;8.738;2023-02-23T04:57:27;7.00;;;6.33;;
28545;SDS011;15749;49.606;8.738;2023-02-23T04:59:56;7.53;;;6.83;;
28545;SDS011;15749;49.606;8.738;2023-02-23T05:02:25;6.97;;;6.30;;
28545;SDS011;15749;49.606;8.738;2023-02-23T05:04:55;7.30;;;6.00;;
28545;SDS011;15749;49.606;8.738;2023-02-23T05:07:28;7.30;;;6.63;;
28545;SDS011;15749;49.606;8.738;2023-02-23T05:09:57;7.10;;;6.50;;
28545;SDS011;15749;49.606;8.738;2023-02-23T05:12:26;6.80;;;6.20;;
28545;SDS011;15749;49.606;8.738;2023-02-23T05:14:55;8.60;;;7.70;;
28545;SDS011;15749;49.606;8.738;2023-02-23T05:17:24;8.47;;;7.73;;
28545;SDS011;15749;49.606;8.738;2023-02-23T05:19:55;7.87;;;7.17;;
28545;SDS011;15749;49.606;8.738;2023-02-23T05:22:24;6.90;;;6.30;;
28545;SDS011;15749;49.606;8.738;2023-02-23T05:24:55;7.27;;;6.57;;
28545;SDS011;15749;49.606;8.738;2023-02-23T05:27:24;7.33;;;6.63;;
28545;SDS011;15749;49.606;8.738;2023-02-23T05:29:56;7.43;;;6.73;;
28545;SDS011;15749;49.606;8.738;2023-02-23T05:32:25;7.97;;;7.20;;
28545;SDS011;15749;49.606;8.738;2023-02-23T05:34:55;7.90;;;7.20;;
28545;SDS011;15749;49.606;8.738;2023-02-23T05:37:29;10.37;;;9.37;;
28545;SDS011;15749;49.606;8.738;2023-02-23T05:39:59;9.23;;;8.40;;
28545;SDS011;15749;49.606;8.738;2023-02-23T05:42:28;9.40;;;8.40;;
28545;SDS011;15749;49.606;8.738;2023-02-23T05:44:58;8.63;;;7.83;;
28545;SDS011;15749;49.606;8.738;2023-02-23T05:47:27;7.57;;;6.87;;
28545;SDS011;15749;49.606;8.738;2023-02-23T05:49:56;8.20;;;7.40;;
28545;SDS011;15749;49.606;8.738;2023-02-23T05:52:26;7.40;;;6.70;;
28545;SDS011;15749;49.606;8.738;2023-02-23T05:54:55;8.17;;;7.37;;
28545;SDS011;15749;49.606;8.738;2023-02-23T05:57:29;7.53;;;6.83;;
28545;SDS011;15749;49.606;8.738;2023-02-23T05:59:58;7.73;;;7.03;;
28545;SDS011;15749;49.606;8.738;2023-02-23T06:02:30;7.10;;;6.40;;
28545;SDS011;15749;49.606;8.738;2023-02-23T06:04:59;7.50;;;6.80;;
28545;SDS011;15749;49.606;8.738;2023-02-23T06:07:29;7.13;;;6.53;;
28545;SDS011;15749;49.606;8.738;2023-02-23T06:09:58;7.83;;;7.03;;
28545;SDS011;15749;49.606;8.738;2023-02-23T06:12:29;7.60;;;6.90;;
28545;SDS011;15749;49.606;8.738;2023-02-23T06:15:00;8.73;;;7.93;;
28545;SDS011;15749;49.606;8.738;2023-02-23T06:17:29;9.97;;;8.60;;
28545;SDS011;15749;49.606;8.738;2023-02-23T06:19:58;10.23;;;9.27;;
28545;SDS011;15749;49.606;8.738;2023-02-23T06:22:29;9.30;;;8.40;;
28545;SDS011;15749;49.606;8.738;2023-02-23T06:24:58;8.53;;;7.77;;
28545;SDS011;15749;49.606;8.738;2023-02-23T06:27:32;10.80;;;9.73;;
28545;SDS011;15749;49.606;8.738;2023-02-23T06:30:02;12.10;;;10.83;;
28545;SDS011;15749;49.606;8.738;2023-02-23T06:32:31;11.80;;;10.67;;
28545;SDS011;15749;49.606;8.738;2023-02-23T06:35:03;13.83;;;11.57;;
28545;SDS011;15749;49.606;8.738;2023-02-23T06:37:35;14.57;;;13.10;;
28545;SDS011;15749;49.606;8.738;2023-02-23T06:40:05;14.33;;;12.83;;
28545;SDS011;15749;49.606;8.738;2023-02-23T06:42:37;15.00;;;13.47;;
28545;SDS011;15749;49.606;8.738;2023-02-23T06:45:06;14.60;;;13.10;;
28545;SDS011;15749;49.606;8.738;2023-02-23T06:47:37;11.67;;;10.57;;
28545;SDS011;15749;49.606;8.738;2023-02-23T06:50:07;10.13;;;9.13;;
28545;SDS011;15749;49.606;8.738;2023-02-23T06:52:37;10.43;;;9.43;;
28545;SDS011;15749;49.606;8.738;2023-02-23T06:55:07;8.70;;;7.93;;
28545;SDS011;15749;49.606;8.738;2023-02-23T06:57:41;10.13;;;9.13;;
28545;SDS011;15749;49.606;8.738;2023-02-23T07:00:12;11.43;;;10.27;;
28545;SDS011;15749;49.606;8.738;2023-02-23T07:02:43;13.07;;;11.73;;
28545;SDS011;15749;49.606;8.738;2023-02-23T07:05:13;11.73;;;10.13;;
28545;SDS011;15749;49.606;8.738;2023-02-23T07:07:42;10.93;;;9.87;;
28545;SDS011;15749;49.606;8.738;2023-02-23T07:10:11;11.93;;;10.67;;
28545;SDS011;15749;49.606;8.738;2023-02-23T07:12:42;12.63;;;11.33;;
28545;SDS011;15749;49.606;8.738;2023-02-23T07:20:49;12.97;;;11.67;;
28545;SDS011;15749;49.606;8.738;2023-02-23T07:23:18;11.63;;;10.53;;
28545;SDS011;15749;49.606;8.738;2023-02-23T07:25:48;11.33;;;10.03;;
28545;SDS011;15749;49.606;8.738;2023-02-23T07:28:21;12.23;;;11.03;;
28545;SDS011;15749;49.606;8.738;2023-02-23T07:30:54;12.73;;;11.43;;
28545;SDS011;15749;49.606;8.738;2023-02-23T07:33:42;11.37;;;10.27;;
28545;SDS011;15749;49.606;8.738;2023-02-23T07:36:30;10.57;;;9.57;;
28545;SDS011;15749;49.606;8.738;2023-02-23T07:39:17;8.63;;;7.83;;
28545;SDS011;15749;49.606;8.738;2023-02-23T07:42:04;8.50;;;7.70;;
28545;SDS011;15749;49.606;8.738;2023-02-23T07:44:54;10.73;;;9.63;;
28545;SDS011;15749;49.606;8.738;2023-02-23T07:47:23;9.90;;;9.00;;
28545;SDS011;15749;49.606;8.738;2023-02-23T07:49:57;9.33;;;8.43;;
28545;SDS011;15749;49.606;8.738;2023-02-23T07:52:26;9.93;;;8.87;;
28545;SDS011;15749;49.606;8.738;2023-02-23T07:54:56;9.37;;;7.97;;
28545;SDS011;15749;49.606;8.738;2023-02-23T07:57:25;8.47;;;7.73;;
28545;SDS011;15749;49.606;8.738;2023-02-23T07:59:55;8.40;;;7.60;;
28545;SDS011;15749;49.606;8.738;2023-02-23T08:02:24;9.23;;;7.60;;
28545;SDS011;15749;49.606;8.738;2023-02-23T08:04:54;8.47;;;7.57;;
28545;SDS011;15749;49.606;8.738;2023-02-23T08:07:23;8.73;;;7.93;;
28545;SDS011;15749;49.606;8.738;2023-02-23T08:09:56;8.73;;;7.93;;
28545;SDS011;15749;49.606;8.738;2023-02-23T08:12:25;10.40;;;9.30;;
28545;SDS011;15749;49.606;8.738;2023-02-23T08:14:55;10.47;;;9.47;;
28545;SDS011;15749;49.606;8.738;2023-02-23T08:17:24;8.93;;;8.03;;
28545;SDS011;15749;49.606;8.738;2023-02-23T08:19:53;8.33;;;7.47;;
28545;SDS011;15749;49.606;8.738;2023-02-23T08:22:22;8.00;;;7.23;;
28545;SDS011;15749;49.606;8.738;2023-02-23T08:24:51;8.97;;;7.50;;
28545;SDS011;15749;49.606;8.738;2023-02-23T08:27:20;9.27;;;8.37;;
28545;SDS011;15749;49.606;8.738;2023-02-23T08:29:49;9.63;;;8.73;;
28545;SDS011;15749;49.606;8.738;2023-02-23T08:32:21;10.27;;;9.33;;
28545;SDS011;15749;49.606;8.738;2023-02-23T08:34:50;9.70;;;8.70;;
28545;SDS011;15749;49.606;8.738;2023-02-23T08:37:20;11.33;;;9.47;;
28545;SDS011;15749;49.606;8.738;2023-02-23T08:39:52;10.23;;;9.23;;
28545;SDS011;15749;49.606;8.738;2023-02-23T08:42:21;12.90;;;10.83;;
28545;SDS011;15749;49.606;8.738;2023-02-23T08:44:50;12.63;;;11.43;;
28545;SDS011;15749;49.606;8.738;2023-02-23T08:47:19;11.50;;;10.40;;
28545;SDS011;15749;49.606;8.738;2023-02-23T08:49:53;10.13;;;9.13;;
28545;SDS011;15749;49.606;8.738;2023-02-23T08:52:22;11.30;;;10.30;;
28545;SDS011;15749;49.606;8.738;2023-02-23T08:54:51;10.07;;;9.07;;
28545;SDS011;15749;49.606;8.738;2023-02-23T08:57:21;9.77;;;8.87;;
28545;SDS011;15749;49.606;8.738;2023-02-23T08:59:50;12.83;;;10.03;;
28545;SDS011;15749;49.606;8.738;2023-02-23T09:02:23;11.80;;;10.60;;
28545;SDS011;15749;49.606;8.738;2023-02-23T09:04:53;9.97;;;9.07;;
28545;SDS011;15749;49.606;8.738;2023-02-23T09:07:23;10.57;;;9.57;;
28545;SDS011;15749;49.606;8.738;2023-02-23T09:09:53;10.00;;;9.10;;
28545;SDS011;15749;49.606;8.738;2023-02-23T09:12:22;11.03;;;9.93;;
28545;SDS011;15749;49.606;8.738;2023-02-23T09:14:52;10.30;;;9.30;;
28545;SDS011;15749;49.606;8.738;2023-02-23T09:17:21;9.97;;;8.37;;
28545;SDS011;15749;49.606;8.738;2023-02-23T09:19:52;11.93;;;10.23;;
28545;SDS011;15749;49.606;8.738;2023-02-23T09:22:21;9.73;;;8.83;;
28545;SDS011;15749;49.606;8.738;2023-02-23T09:24:50;9.33;;;8.53;;
28545;SDS011;15749;49.606;8.738;2023-02-23T09:27:19;12.03;;;10.73;;
28545;SDS011;15749;49.606;8.738;2023-02-23T09:29:48;13.87;;;11.53;;
28545;SDS011;15749;49.606;8.738;2023-02-23T09:32:17;11.87;;;10.77;;
28545;SDS011;15749;49.606;8.738;2023-02-23T09:34:48;15.63;;;12.17;;
28545;SDS011;15749;49.606;8.738;2023-02-23T09:37:18;14.07;;;12.57;;
28545;SDS011;15749;49.606;8.738;2023-02-23T09:39:47;10.97;;;10.00;;
28545;SDS011;15749;49.606;8.738;2023-02-23T09:42:23;11.07;;;9.97;;
28545;SDS011;15749;49.606;8.738;2023-02-23T09:45:18;11.67;;;10.53;;
28545;SDS011;15749;49.606;8.738;2023-02-23T09:47:56;11.30;;;10.20;;
28545;SDS011;15749;49.606;8.738;2023-02-23T09:50:38;11.97;;;10.73;;
28545;SDS011;15749;49.606;8.738;2023-02-23T09:53:19;12.00;;;10.77;;
28545;SDS011;15749;49.606;8.738;2023-02-23T09:56:01;9.87;;;8.97;;
28545;SDS011;15749;49.606;8.738;2023-02-23T09:58:36;11.57;;;10.37;;
28545;SDS011;15749;49.606;8.738;2023-02-23T10:01:11;11.63;;;10.57;;
28545;SDS011;15749;49.606;8.738;2023-02-23T10:04:15;13.37;;;11.37;;
28545;SDS011;15749;49.606;8.738;2023-02-23T10:06:51;12.57;;;10.97;;
28545;SDS011;15749;49.606;8.738;2023-02-23T10:09:27;10.07;;;9.07;;
28545;SDS011;15749;49.606;8.738;2023-02-23T10:12:18;10.07;;;9.07;;
28545;SDS011;15749;49.606;8.738;2023-02-23T10:15:10;10.83;;;9.77;;
28545;SDS011;15749;49.606;8.738;2023-02-23T10:18:08;10.90;;;9.77;;
28545;SDS011;15749;49.606;8.738;2023-02-23T10:20:57;10.07;;;9.07;;
28545;SDS011;15749;49.606;8.738;2023-02-23T10:23:35;9.67;;;8.67;;
28545;SDS011;15749;49.606;8.738;2023-02-23T10:26:10;10.83;;;9.83;;
28545;SDS011;15749;49.606;8.738;2023-02-23T10:28:46;9.23;;;8.33;;
28545;SDS011;15749;49.606;8.738;2023-02-23T10:31:22;12.07;;;10.37;;
28545;SDS011;15749;49.606;8.738;2023-02-23T10:33:58;12.40;;;11.20;;
28545;SDS011;15749;49.606;8.738;2023-02-23T10:36:34;12.17;;;10.87;;
28545;SDS011;15749;49.606;8.738;2023-02-23T10:39:07;11.80;;;10.60;;
28545;SDS011;15749;49.606;8.738;2023-02-23T10:41:39;11.73;;;10.53;;
28545;SDS011;15749;49.606;8.738;2023-02-23T10:44:14;11.00;;;9.70;;
28545;SDS011;15749;49.606;8.738;2023-02-23T10:46:49;9.80;;;8.80;;
28545;SDS011;15749;49.606;8.738;2023-02-23T10:49:26;8.70;;;7.87;;
28545;SDS011;15749;49.606;8.738;2023-02-23T10:52:09;9.93;;;8.97;;
28545;SDS011;15749;49.606;8.738;2023-02-23T10:54:41;11.37;;;10.27;;
28545;SDS011;15749;49.606;8.738;2023-02-23T10:57:23;10.97;;;9.87;;
28545;SDS011;15749;49.606;8.738;2023-02-23T10:59:59;8.60;;;7.80;;
28545;SDS011;15749;49.606;8.738;2023-02-23T11:02:54;10.70;;;9.57;;
28545;SDS011;15749;49.606;8.738;2023-02-23T11:05:36;12.40;;;10.33;;
28545;SDS011;15749;49.606;8.738;2023-02-23T11:08:20;11.57;;;9.53;;
28545;SDS011;15749;49.606;8.738;2023-02-23T11:11:04;11.87;;;10.73;;
28545;SDS011;15749;49.606;8.738;2023-02-23T11:13:46;9.60;;;8.60;;
28545;SDS011;15749;49.606;8.738;2023-02-23T11:16:17;13.70;;;11.00;;
28545;SDS011;15749;49.606;8.738;2023-02-23T11:18:49;11.70;;;10.50;;
28545;SDS011;15749;49.606;8.738;2023-02-23T11:21:22;13.37;;;12.03;;
28545;SDS011;15749;49.606;8.738;2023-02-23T11:23:56;12.37;;;11.17;;
28545;SDS011;15749;49.606;8.738;2023-02-23T11:26:32;10.27;;;9.20;;
28545;SDS011;15749;49.606;8.738;2023-02-23T11:29:11;10.47;;;9.43;;
28545;SDS011;15749;49.606;8.738;2023-02-23T11:31:47;11.97;;;10.77;;
28545;SDS011;15749;49.606;8.738;2023-02-23T11:34:26;12.90;;;11.67;;
28545;SDS011;15749;49.606;8.738;2023-02-23T11:36:59;15.07;;;13.07;;
28545;SDS011;15749;49.606;8.738;2023-02-23T11:39:32;16.07;;;14.20;;
28545;SDS011;15749;49.606;8.738;2023-02-23T11:42:13;14.23;;;12.90;;
28545;SDS011;15749;49.606;8.738;2023-02-23T11:44:49;13.17;;;11.87;;
28545;SDS011;15749;49.606;8.738;2023-02-23T11:47:20;14.47;;;13.07;;
28545;SDS011;15749;49.606;8.738;2023-02-23T11:49:52;14.93;;;13.10;;
28545;SDS011;15749;49.606;8.738;2023-02-23T11:52:24;13.40;;;12.00;;
28545;SDS011;15749;49.606;8.738;2023-02-23T11:54:55;11.17;;;10.07;;
28545;SDS011;15749;49.606;8.738;2023-02-23T11:57:28;11.83;;;10.60;;
28545;SDS011;15749;49.606;8.738;2023-02-23T12:00:07;10.03;;;9.03;;
28545;SDS011;15749;49.606;8.738;2023-02-23T12:02:46;9.83;;;8.93;;
28545;SDS011;15749;49.606;8.738;2023-02-23T12:05:22;9.07;;;8.27;;
28545;SDS011;15749;49.606;8.738;2023-02-23T12:07:57;8.63;;;7.83;;
28545;SDS011;15749;49.606;8.738;2023-02-23T12:10:36;9.20;;;7.87;;
28545;SDS011;15749;49.606;8.738;2023-02-23T12:13:16;10.23;;;8.10;;
28545;SDS011;15749;49.606;8.738;2023-02-23T12:15:53;8.67;;;7.77;;
28545;SDS011;15749;49.606;8.738;2023-02-23T12:18:37;7.90;;;7.10;;
28545;SDS011;15749;49.606;8.738;2023-02-23T12:21:18;7.40;;;6.70;;
28545;SDS011;15749;49.606;8.738;2023-02-23T12:24:00;7.87;;;6.93;;
28545;SDS011;15749;49.606;8.738;2023-02-23T12:26:44;6.90;;;6.23;;
28545;SDS011;15749;49.606;8.738;2023-02-23T12:29:22;6.37;;;5.77;;
28545;SDS011;15749;49.606;8.738;2023-02-23T12:31:58;7.00;;;6.30;;
28545;SDS011;15749;49.606;8.738;2023-02-23T12:34:33;7.57;;;6.77;;
28545;SDS011;15749;49.606;8.738;2023-02-23T12:37:15;8.07;;;6.87;;
28545;SDS011;15749;49.606;8.738;2023-02-23T12:39:57;7.87;;;6.17;;
28545;SDS011;15749;49.606;8.738;2023-02-23T12:42:44;6.10;;;5.57;;
28545;SDS011;15749;49.606;8.738;2023-02-23T12:45:23;6.97;;;6.27;;
28545;SDS011;15749;49.606;8.738;2023-02-23T12:48:10;6.87;;;5.90;;
28545;SDS011;15749;49.606;8.738;2023-02-23T12:50:49;7.57;;;5.80;;
28545;SDS011;15749;49.606;8.738;2023-02-23T12:53:20;7.37;;;5.77;;
28545;SDS011;15749;49.606;8.738;2023-02-23T12:56:03;6.07;;;5.00;;
28545;SDS011;15749;49.606;8.738;2023-02-23T12:58:57;6.53;;;5.73;;
28545;SDS011;15749;49.606;8.738;2023-02-23T13:01:53;4.67;;;4.27;;
28545;SDS011;15749;49.606;8.738;2023-02-23T13:04:31;5.57;;;4.80;;
28545;SDS011;15749;49.606;8.738;2023-02-23T13:07:28;5.37;;;4.87;;
28545;SDS011;15749;49.606;8.738;2023-02-23T13:10:11;5.67;;;4.13;;
28545;SDS011;15749;49.606;8.738;2023-02-23T13:12:52;5.57;;;5.00;;
28545;SDS011;15749;49.606;8.738;2023-02-23T13:15:35;6.37;;;3.83;;
28545;SDS011;15749;49.606;8.738;2023-02-23T13:18:21;4.60;;;4.07;;
28545;SDS011;15749;49.606;8.738;2023-02-23T13:20:56;4.03;;;3.63;;
28545;SDS011;15749;49.606;8.738;2023-02-23T13:23:36;4.47;;;3.77;;
28545;SDS011;15749;49.606;8.738;2023-02-23T13:26:17;5.40;;;3.80;;
28545;SDS011;15749;49.606;8.738;2023-02-23T13:28:57;4.50;;;4.10;;
28545;SDS011;15749;49.606;8.738;2023-02-23T13:31:32;4.37;;;3.93;;
28545;SDS011;15749;49.606;8.738;2023-02-23T13:34:08;4.57;;;4.17;;
28545;SDS011;15749;49.606;8.738;2023-02-23T13:36:47;4.80;;;4.33;;
28545;SDS011;15749;49.606;8.738;2023-02-23T13:39:22;9.00;;;6.10;;
28545;SDS011;15749;49.606;8.738;2023-02-23T13:45:20;12.27;;;9.20;;
28545;SDS011;15749;49.606;8.738;2023-02-23T13:48:05;11.67;;;9.60;;
28545;SDS011;15749;49.606;8.738;2023-02-23T13:50:55;9.87;;;8.87;;
28545;SDS011;15749;49.606;8.738;2023-02-23T13:53:32;7.97;;;6.47;;
28545;SDS011;15749;49.606;8.738;2023-02-23T13:56:08;6.80;;;5.10;;
28545;SDS011;15749;49.606;8.738;2023-02-23T13:58:39;5.77;;;4.77;;
28545;SDS011;15749;49.606;8.738;2023-02-23T14:01:16;8.33;;;5.37;;
28545;SDS011;15749;49.606;8.738;2023-02-23T14:03:52;4.33;;;3.93;;
28545;SDS011;15749;49.606;8.738;2023-02-23T14:06:26;4.00;;;3.60;;
28545;SDS011;15749;49.606;8.738;2023-02-23T14:09:05;3.43;;;3.10;;
28545;SDS011;15749;49.606;8.738;2023-02-23T14:11:46;5.23;;;4.60;;
28545;SDS011;15749;49.606;8.738;2023-02-23T14:14:37;4.23;;;3.67;;
28545;SDS011;15749;49.606;8.738;2023-02-23T14:23:28;3.87;;;3.00;;
28545;SDS011;15749;49.606;8.738;2023-02-23T14:26:13;3.23;;;2.93;;
28545;SDS011;15749;49.606;8.738;2023-02-23T14:29:25;3.23;;;2.93;;
28545;SDS011;15749;49.606;8.738;2023-02-23T14:31:59;4.70;;;3.60;;
28545;SDS011;15749;49.606;8.738;2023-02-23T14:34:42;4.07;;;3.30;;
28545;SDS011;15749;49.606;8.738;2023-02-23T14:37:24;3.67;;;2.97;;
28545;SDS011;15749;49.606;8.738;2023-02-23T14:40:12;2.87;;;2.57;;
28545;SDS011;15749;49.606;8.738;2023-02-23T14:42:46;4.27;;;3.13;;
28545;SDS011;15749;49.606;8.738;2023-02-23T14:45:20;4.40;;;4.00;;
28545;SDS011;15749;49.606;8.738;2023-02-23T14:47:55;3.40;;;3.10;;
28545;SDS011;15749;49.606;8.738;2023-02-23T14:50:31;2.80;;;2.60;;
28545;SDS011;15749;49.606;8.738;2023-02-23T14:53:05;3.33;;;2.87;;
28545;SDS011;15749;49.606;8.738;2023-02-23T14:55:48;3.30;;;2.90;;
28545;SDS011;15749;49.606;8.738;2023-02-23T14:58:20;4.13;;;3.03;;
28545;SDS011;15749;49.606;8.738;2023-02-23T15:00:51;6.63;;;4.37;;
28545;SDS011;15749;49.606;8.738;2023-02-23T15:03:24;3.27;;;2.97;;
28545;SDS011;15749;49.606;8.738;2023-02-23T15:05:55;3.63;;;2.93;;
28545;SDS011;15749;49.606;8.738;2023-02-23T15:08:31;2.60;;;2.40;;
28545;SDS011;15749;49.606;8.738;2023-02-23T15:11:12;3.10;;;2.57;;
28545;SDS011;15749;49.606;8.738;2023-02-23T15:13:46;3.43;;;3.13;;
28545;SDS011;15749;49.606;8.738;2023-02-23T15:16:20;3.20;;;2.90;;
28545;SDS011;15749;49.606;8.738;2023-02-23T15:22:03;3.13;;;2.80;;
28545;SDS011;15749;49.606;8.738;2023-02-23T15:24:39;2.70;;;2.43;;
28545;SDS011;15749;49.606;8.738;2023-02-23T15:27:17;3.30;;;2.53;;
28545;SDS011;15749;49.606;8.738;2023-02-23T15:29:53;2.43;;;2.23;;
28545;SDS011;15749;49.606;8.738;2023-02-23T15:32:24;2.83;;;2.53;;
28545;SDS011;15749;49.606;8.738;2023-02-23T15:34:54;2.90;;;2.70;;
28545;SDS011;15749;49.606;8.738;2023-02-23T15:37:32;2.43;;;2.23;;
28545;SDS011;15749;49.606;8.738;2023-02-23T15:40:06;2.20;;;2.03;;
28545;SDS011;15749;49.606;8.738;2023-02-23T15:42:47;2.97;;;2.57;;
28545;SDS011;15749;49.606;8.738;2023-02-23T15:45:21;2.97;;;2.33;;
28545;SDS011;15749;49.606;8.738;2023-02-23T15:48:03;3.13;;;2.83;;
28545;SDS011;15749;49.606;8.738;2023-02-23T15:50:39;3.13;;;2.83;;
28545;SDS011;15749;49.606;8.738;2023-02-23T15:53:13;3.10;;;2.80;;